Aérodrome :
LOGIN :

S'inscrire | Disclaimer

   EN    FR    IT 

 










Légende :    VFR   VFR Marginal   IFR   IFR Intensif   IFR Très Intensif
Visi : 
Plafond : 
>= 8 km
>= 3000ft
5 à 8 km
1000 à 3000 ft
1500m à 5 km
500 à 1000 ft
800 à 1500m
200 à 500 ft
< 800m
< 200 ft
Symboles :   Orages  Brouillard  Fortes neiges  Fortes précipitations  Vent > 20 kt
SIGMETs :   Divers  Orages  Givrage  Turbulence  Onde Orograph.  Cendres Volcan.







- Altitude de l'aérodrome : 416 ft
- Code IATA : OVD


LEAS - Asturias

DERNIER METAR :
  • 100100Z AUTO 24003KT 9999 NCD 09/08 Q1034

METARs EXPIRÉS :
  • 100030Z AUTO 27001KT 9999 NCD 09/08 Q1034
  • 100000Z AUTO 22001KT 9999 NCD 09/08 Q1034
  • 092330Z AUTO 00000KT 9999 FEW029/// 10/09 Q1034
  • 092300Z AUTO 00000KT 9999 BKN030/// 10/09 Q1034
  • 092230Z 21003KT 7000 OVC032 11/09 Q1034 TEMPO 3000 BR

TAF TAF LEAS
Valide du 09 à 21h jusqu'au 10 à 21h UTC


092000Z 0921/1021 VRB03KT 6000 SCT025 BKN030 TX14/1014Z TN08/1006Z
PROB40
TEMPO 0921/0924 3000 BR
TEMPO 1003/1009 22010KT
BECMG 1009/1013 08010KT
Pas de NOTAMs connus pour ce terrain.



MET'MAP, la Météo Aéronautique d'un coup d'oeil ! - Copyright ORBIFLY Décembre 2007 - Disclaimer

ORBIFLY MET'MAP TEAM :

Programmation & Développement : Alexandra Zaïnal
Conception & Développement : Baudouin d'Aumeries
Co-Programmation & Développement : Marc-Olivier Méhu
Soutien technique & logistique : Manuel Goepfert

Contact : metmap@orbifly.com




SOURCES & CREDITS :

   NOAA